createdAt,value
2018-05-16T00:00:08.532Z,40.37
2018-05-16T00:02:36.062Z,40.87
2018-05-16T00:05:03.610Z,40.17
2018-05-16T00:07:31.140Z,39.47
2018-05-16T00:09:58.674Z,40.13
2018-05-16T00:12:26.206Z,40.03
2018-05-16T00:14:53.730Z,40.43
2018-05-16T00:17:22.042Z,38.27
2018-05-16T00:19:49.588Z,38.47
2018-05-16T00:22:18.206Z,37.80
2018-05-16T00:24:48.025Z,39.00
2018-05-16T00:27:15.568Z,37.27
2018-05-16T00:29:43.077Z,35.60
2018-05-16T00:32:11.387Z,36.47
2018-05-16T00:34:40.327Z,38.37
2018-05-16T00:37:07.882Z,34.47
2018-05-16T00:39:35.389Z,36.93
2018-05-16T00:42:02.920Z,34.67
2018-05-16T00:44:31.227Z,35.63
2018-05-16T00:46:58.776Z,36.10
2018-05-16T00:49:26.311Z,34.27
2018-05-16T00:51:54.590Z,34.37
2018-05-16T00:54:22.918Z,34.07
2018-05-16T00:56:50.424Z,35.00
2018-05-16T00:59:18.728Z,33.43
2018-05-16T01:01:46.244Z,33.40
2018-05-16T01:04:13.792Z,33.57
2018-05-16T01:06:41.324Z,32.83
2018-05-16T01:09:08.867Z,32.57
2018-05-16T01:11:36.600Z,31.53
2018-05-16T01:14:04.911Z,33.43
2018-05-16T01:16:32.473Z,32.07
2018-05-16T01:19:00.047Z,31.07
2018-05-16T01:21:27.611Z,32.97
2018-05-16T01:23:56.185Z,32.13
2018-05-16T01:26:23.726Z,31.70
2018-05-16T01:28:51.274Z,30.43
2018-05-16T01:31:18.824Z,33.00
2018-05-16T01:33:46.357Z,32.97
2018-05-16T01:36:13.886Z,33.63
2018-05-16T01:38:41.422Z,31.97
2018-05-16T01:41:08.988Z,31.27
2018-05-16T01:43:36.516Z,32.47
2018-05-16T01:46:04.021Z,32.03
2018-05-16T01:48:31.575Z,32.17
2018-05-16T01:50:59.089Z,31.07
2018-05-16T01:53:27.387Z,31.90
2018-05-16T01:55:54.908Z,30.50
2018-05-16T01:58:23.390Z,31.90
2018-05-16T02:00:52.905Z,31.70
2018-05-16T02:03:21.192Z,32.03
2018-05-16T02:05:48.733Z,30.83
2018-05-16T02:08:17.026Z,31.70
2018-05-16T02:10:44.543Z,29.83
2018-05-16T02:13:12.042Z,29.67
2018-05-16T02:15:39.579Z,30.93
2018-05-16T02:18:07.090Z,30.67
2018-05-16T02:20:34.597Z,30.57
2018-05-16T02:23:03.800Z,31.63
2018-05-16T02:25:32.135Z,31.47
2018-05-16T02:28:00.182Z,31.23
2018-05-16T02:30:27.704Z,32.60
2018-05-16T02:32:56.017Z,31.93
2018-05-16T02:35:23.603Z,31.90
2018-05-16T02:37:51.159Z,32.13
2018-05-16T02:40:19.379Z,33.07
2018-05-16T02:42:47.715Z,35.10
2018-05-16T02:45:15.247Z,31.37
2018-05-16T02:47:42.801Z,32.67
2018-05-16T02:50:10.429Z,34.10
2018-05-16T02:52:38.707Z,34.47
2018-05-16T02:55:07.023Z,34.47
2018-05-16T02:57:34.562Z,33.30
2018-05-16T03:00:02.146Z,34.67
2018-05-16T03:02:29.670Z,34.57
2018-05-16T03:04:58.150Z,33.83
2018-05-16T03:07:26.484Z,34.70
2018-05-16T03:09:54.036Z,34.97
2018-05-16T03:12:21.549Z,35.30
2018-05-16T03:14:49.077Z,34.57
2018-05-16T03:17:16.614Z,34.77
2018-05-16T03:19:44.118Z,35.43
2018-05-16T03:22:11.687Z,36.17
2018-05-16T03:24:39.237Z,37.13
2018-05-16T03:27:06.797Z,37.23
2018-05-16T03:29:34.351Z,36.40
2018-05-16T03:32:02.636Z,36.07
2018-05-16T03:34:30.696Z,36.53
2018-05-16T03:36:59.001Z,37.87
2018-05-16T03:39:26.541Z,37.97
2018-05-16T03:41:54.069Z,37.50
2018-05-16T03:44:21.605Z,38.03
2018-05-16T03:46:49.131Z,36.23
2018-05-16T03:49:16.679Z,36.30
2018-05-16T03:51:44.225Z,34.97
2018-05-16T03:54:11.799Z,37.20
2018-05-16T03:56:39.357Z,36.53
2018-05-16T03:59:19.351Z,35.13
2018-05-16T04:01:58.847Z,35.80
2018-05-16T04:04:26.959Z,34.27
2018-05-16T04:06:54.479Z,35.90
2018-05-16T04:09:22.012Z,34.23
2018-05-16T04:11:50.309Z,35.63
2018-05-16T04:14:19.231Z,35.70
2018-05-16T04:16:46.805Z,37.37
2018-05-16T04:19:14.387Z,34.60
2018-05-16T04:21:41.932Z,33.10
2018-05-16T04:24:09.447Z,35.27
2018-05-16T04:26:37.056Z,34.30
2018-05-16T04:29:05.315Z,32.63
2018-05-16T04:31:32.859Z,33.90
2018-05-16T04:34:00.407Z,31.70
2018-05-16T04:36:27.925Z,33.40
2018-05-16T04:38:56.213Z,32.87
2018-05-16T04:41:24.512Z,31.43
2018-05-16T04:43:52.105Z,30.07
2018-05-16T04:46:19.610Z,31.70
2018-05-16T04:48:47.129Z,31.30
2018-05-16T04:51:14.699Z,28.10
2018-05-16T04:53:42.193Z,29.30
2018-05-16T04:56:11.230Z,32.37
2018-05-16T04:58:38.762Z,30.57
2018-05-16T05:01:07.571Z,28.63
2018-05-16T05:03:35.516Z,28.70
2018-05-16T05:06:03.098Z,27.77
2018-05-16T05:08:30.623Z,27.37
2018-05-16T05:10:58.167Z,27.03
2018-05-16T05:13:26.483Z,27.83
2018-05-16T05:15:53.999Z,26.60
2018-05-16T05:18:22.448Z,27.13
2018-05-16T05:20:49.845Z,27.37
2018-05-16T05:23:17.381Z,28.07
2018-05-16T05:25:47.473Z,29.27
2018-05-16T05:28:15.006Z,27.90
2018-05-16T05:30:42.533Z,27.67
2018-05-16T05:33:10.060Z,28.03
2018-05-16T05:35:37.619Z,29.23
2018-05-16T05:38:05.153Z,26.67
2018-05-16T05:40:32.708Z,28.00
2018-05-16T05:43:00.244Z,28.67
2018-05-16T05:45:27.775Z,28.13
2018-05-16T05:47:56.053Z,29.07
2018-05-16T05:50:24.327Z,29.03
2018-05-16T05:52:52.623Z,28.97
2018-05-16T05:55:20.142Z,29.93
2018-05-16T05:57:47.694Z,27.83
2018-05-16T06:00:15.203Z,27.97
2018-05-16T06:02:42.760Z,28.40
2018-05-16T06:05:10.327Z,28.10
2018-05-16T06:07:37.876Z,28.20
2018-05-16T06:10:05.397Z,27.30
2018-05-16T06:12:32.979Z,29.07
2018-05-16T06:15:01.266Z,27.97
2018-05-16T06:17:28.809Z,27.27
2018-05-16T06:19:57.222Z,28.17
2018-05-16T06:22:24.707Z,29.00
2018-05-16T06:24:52.261Z,29.63
2018-05-16T06:27:19.957Z,27.47
2018-05-16T06:29:47.379Z,28.10
2018-05-16T06:32:14.960Z,28.77
2018-05-16T06:34:42.530Z,31.00
2018-05-16T06:37:10.844Z,28.03
2018-05-16T06:39:38.367Z,29.10
2018-05-16T06:42:06.664Z,29.67
2018-05-16T06:44:37.105Z,30.13
2018-05-16T06:47:04.667Z,30.53
2018-05-16T06:49:32.217Z,30.07
2018-05-16T06:51:59.772Z,29.90
2018-05-16T06:54:27.308Z,28.23
2018-05-16T06:56:55.634Z,29.77
2018-05-16T06:59:23.157Z,30.40
2018-05-16T07:01:51.517Z,28.63
2018-05-16T07:04:22.699Z,32.77
2018-05-16T07:06:50.229Z,29.03
2018-05-16T07:09:19.000Z,28.70
2018-05-16T07:11:47.350Z,27.87
2018-05-16T07:14:14.992Z,27.80
2018-05-16T07:16:42.516Z,26.60
2018-05-16T07:19:10.815Z,27.23
2018-05-16T07:21:38.332Z,23.13
2018-05-16T07:24:05.873Z,20.67
2018-05-16T07:26:33.427Z,20.17
2018-05-16T07:29:00.970Z,20.63
2018-05-16T07:31:28.495Z,20.07
2018-05-16T07:33:56.015Z,20.60
2018-05-16T07:36:23.568Z,21.33
2018-05-16T07:38:51.084Z,21.47
2018-05-16T07:41:18.601Z,19.23
2018-05-16T07:43:46.129Z,18.07
2018-05-16T07:46:13.687Z,16.63
2018-05-16T07:48:41.214Z,16.47
2018-05-16T07:51:08.755Z,15.07
2018-05-16T07:53:36.291Z,15.23
2018-05-16T07:56:03.906Z,14.43
2018-05-16T07:58:31.456Z,14.73
2018-05-16T08:00:59.097Z,13.00
2018-05-16T08:03:26.580Z,12.57
2018-05-16T08:05:54.151Z,12.03
2018-05-16T08:08:21.694Z,12.10
2018-05-16T08:10:49.205Z,11.87
2018-05-16T08:13:16.736Z,10.93
2018-05-16T08:15:44.251Z,11.37
2018-05-16T08:18:11.791Z,11.13
2018-05-16T08:20:40.075Z,12.30
2018-05-16T08:23:08.375Z,12.47
2018-05-16T08:25:35.930Z,11.77
2018-05-16T08:28:03.483Z,12.03
2018-05-16T08:30:31.013Z,12.67
2018-05-16T08:32:59.321Z,11.70
2018-05-16T08:35:26.861Z,12.80
2018-05-16T08:37:55.187Z,12.17
2018-05-16T08:40:22.729Z,11.83
2018-05-16T08:42:50.248Z,11.13
2018-05-16T08:45:18.580Z,10.30
2018-05-16T08:47:46.094Z,9.20
2018-05-16T08:50:14.406Z,8.50
2018-05-16T08:52:41.924Z,8.80
2018-05-16T08:55:10.293Z,9.40
2018-05-16T08:57:37.865Z,9.23
2018-05-16T09:00:07.183Z,8.90
2018-05-16T09:02:34.711Z,9.73
2018-05-16T09:05:02.264Z,9.30
2018-05-16T09:07:29.828Z,9.00
2018-05-16T09:09:57.346Z,8.90
2018-05-16T09:12:24.887Z,9.80
2018-05-16T09:14:52.438Z,9.83
2018-05-16T09:17:20.033Z,9.80
2018-05-16T09:19:47.531Z,7.60
2018-05-16T09:22:15.841Z,7.40
2018-05-16T09:24:43.364Z,7.73
2018-05-16T09:27:11.699Z,8.30
2018-05-16T09:29:39.232Z,8.70
2018-05-16T09:32:06.745Z,8.77
2018-05-16T09:34:34.266Z,7.40
2018-05-16T09:37:01.805Z,8.07
2018-05-16T09:39:29.357Z,8.73
2018-05-16T09:41:56.893Z,9.27
2018-05-16T09:44:25.191Z,8.90
2018-05-16T09:46:54.781Z,10.07
2018-05-16T09:49:23.117Z,10.07
2018-05-16T09:51:50.687Z,9.57
2018-05-16T09:54:18.221Z,10.37
2018-05-16T09:56:45.867Z,10.10
2018-05-16T09:59:13.388Z,9.57
2018-05-16T10:01:40.943Z,10.20
2018-05-16T10:04:08.493Z,10.50
2018-05-16T10:06:36.170Z,11.07
2018-05-16T10:09:04.472Z,10.70
2018-05-16T10:11:32.022Z,11.30
2018-05-16T10:13:59.555Z,10.77
2018-05-16T10:16:27.071Z,12.53
2018-05-16T10:18:54.600Z,11.97
2018-05-16T10:21:22.141Z,12.77
2018-05-16T10:23:50.468Z,12.73
2018-05-16T10:26:18.641Z,12.97
2018-05-16T10:28:46.177Z,13.27
2018-05-16T10:31:14.509Z,13.67
2018-05-16T10:33:43.197Z,13.50
2018-05-16T10:36:10.787Z,13.60
2018-05-16T10:38:38.338Z,12.90
2018-05-16T10:41:06.619Z,10.63
2018-05-16T10:43:34.895Z,10.40
2018-05-16T10:46:03.191Z,10.00
2018-05-16T10:48:30.728Z,10.30
2018-05-16T10:50:59.089Z,11.73
2018-05-16T10:53:26.999Z,10.20
2018-05-16T10:55:54.563Z,10.07
2018-05-16T10:58:22.093Z,9.47
2018-05-16T11:00:49.701Z,9.80
2018-05-16T11:03:17.319Z,9.63
2018-05-16T11:05:44.905Z,8.27
2018-05-16T11:08:12.431Z,7.53
2018-05-16T11:10:39.944Z,8.17
2018-05-16T11:13:10.590Z,7.40
2018-05-16T11:15:38.126Z,7.40
2018-05-16T11:18:05.708Z,6.70
2018-05-16T11:20:33.612Z,6.20
2018-05-16T11:23:02.430Z,6.50
2018-05-16T11:25:29.946Z,7.60
2018-05-16T11:27:59.409Z,7.37
2018-05-16T11:30:26.953Z,7.97
2018-05-16T11:32:54.480Z,7.30
2018-05-16T11:35:22.020Z,7.23
2018-05-16T11:37:50.304Z,6.87
2018-05-16T11:40:18.616Z,7.27
2018-05-16T11:42:46.139Z,7.57
2018-05-16T11:45:14.434Z,7.07
2018-05-16T11:47:41.982Z,6.80
2018-05-16T11:50:09.541Z,7.17
2018-05-16T11:52:37.074Z,6.77
2018-05-16T11:55:08.583Z,6.93
2018-05-16T11:57:36.135Z,6.17
2018-05-16T12:00:03.716Z,6.93
2018-05-16T12:02:31.258Z,6.20
2018-05-16T12:04:58.776Z,6.23
2018-05-16T12:07:27.133Z,5.67
2018-05-16T12:09:54.663Z,5.37
2018-05-16T12:12:22.221Z,4.93
2018-05-16T12:14:49.940Z,5.07
2018-05-16T12:17:17.431Z,5.23
2018-05-16T12:19:44.977Z,4.03
2018-05-16T12:22:12.502Z,5.20
2018-05-16T12:24:40.823Z,4.37
2018-05-16T12:27:08.400Z,4.67
2018-05-16T12:29:35.952Z,5.20
2018-05-16T12:32:03.480Z,5.13
2018-05-16T12:34:31.156Z,5.10
2018-05-16T12:36:58.730Z,5.97
2018-05-16T12:39:26.292Z,6.60
2018-05-16T12:41:53.844Z,7.50
2018-05-16T12:44:21.361Z,8.03
2018-05-16T12:46:49.671Z,7.27
2018-05-16T12:49:17.279Z,6.73
2018-05-16T12:51:44.844Z,7.93
2018-05-16T12:54:13.125Z,7.47
2018-05-16T12:56:41.428Z,7.80
2018-05-16T12:59:08.972Z,7.83
2018-05-16T13:01:36.690Z,7.73
2018-05-16T13:04:04.125Z,7.87
2018-05-16T13:06:31.680Z,8.23
2018-05-16T13:08:59.208Z,8.10
2018-05-16T13:11:26.816Z,9.40
2018-05-16T13:13:54.347Z,10.27
2018-05-16T13:16:21.900Z,10.33
2018-05-16T13:18:49.463Z,11.17
2018-05-16T13:21:17.126Z,10.63
2018-05-16T13:23:44.694Z,9.63
2018-05-16T13:26:12.247Z,10.20
2018-05-16T13:28:39.785Z,8.50
2018-05-16T13:31:07.329Z,8.03
2018-05-16T13:33:35.614Z,7.50
2018-05-16T13:36:03.946Z,7.70
2018-05-16T13:38:31.461Z,7.63
2018-05-16T13:40:59.012Z,8.70
2018-05-16T13:43:26.580Z,8.17
2018-05-16T13:45:54.105Z,8.20
2018-05-16T13:48:21.635Z,8.70
2018-05-16T13:50:49.880Z,8.60
2018-05-16T13:53:17.416Z,9.90
2018-05-16T13:55:45.729Z,10.57
2018-05-16T13:58:13.278Z,11.00
2018-05-16T14:00:40.796Z,10.83
2018-05-16T14:03:09.102Z,10.80
2018-05-16T14:05:36.631Z,10.23
2018-05-16T14:08:04.938Z,9.77
2018-05-16T14:10:32.457Z,9.43
2018-05-16T14:12:59.985Z,9.80
2018-05-16T14:15:27.624Z,10.10
2018-05-16T14:17:55.213Z,9.70
2018-05-16T14:20:23.533Z,9.53
2018-05-16T14:22:51.856Z,10.80
2018-05-16T14:25:19.400Z,9.63
2018-05-16T14:27:46.914Z,10.47
2018-05-16T14:30:15.239Z,9.97
2018-05-16T14:32:42.769Z,11.30
2018-05-16T14:35:11.715Z,8.70
2018-05-16T14:37:40.031Z,7.67
2018-05-16T14:40:08.334Z,7.63
2018-05-16T14:42:35.904Z,8.73
2018-05-16T14:45:03.453Z,8.63
2018-05-16T14:47:31.001Z,8.50
2018-05-16T14:49:58.570Z,9.13
2018-05-16T14:52:26.086Z,8.87
2018-05-16T14:54:53.639Z,8.97
2018-05-16T14:57:21.174Z,9.90
2018-05-16T14:59:48.710Z,9.17
2018-05-16T15:02:16.264Z,7.77
2018-05-16T15:04:43.776Z,8.00
2018-05-16T15:07:11.323Z,7.27
2018-05-16T15:09:38.886Z,7.53
2018-05-16T15:12:06.441Z,7.50
2018-05-16T15:14:34.761Z,7.60
2018-05-16T15:17:02.315Z,7.57
2018-05-16T15:19:29.854Z,8.67
2018-05-16T15:21:58.150Z,8.70
2018-05-16T15:24:26.474Z,8.37
2018-05-16T15:26:54.039Z,9.70
2018-05-16T15:29:21.635Z,10.37
2018-05-16T15:31:51.058Z,10.07
2018-05-16T15:34:18.610Z,11.13
2018-05-16T15:36:46.133Z,12.20
2018-05-16T15:39:13.677Z,12.40
2018-05-16T15:41:41.191Z,12.47
2018-05-16T15:44:08.779Z,11.87
2018-05-16T15:46:36.326Z,12.17
2018-05-16T15:49:03.926Z,12.43
2018-05-16T15:51:31.479Z,12.03
2018-05-16T15:53:59.503Z,12.27
2018-05-16T15:56:27.046Z,12.23
2018-05-16T15:58:55.359Z,11.43
2018-05-16T16:01:22.941Z,11.97
2018-05-16T16:03:50.497Z,12.00
2018-05-16T16:06:18.854Z,11.97
2018-05-16T16:08:46.397Z,11.63
2018-05-16T16:11:14.010Z,11.50
2018-05-16T16:13:41.596Z,12.20
2018-05-16T16:16:09.897Z,12.73
2018-05-16T16:18:37.463Z,11.50
2018-05-16T16:21:05.015Z,11.60
2018-05-16T16:23:32.632Z,10.93
2018-05-16T16:26:00.169Z,12.03
2018-05-16T16:28:27.705Z,12.00
2018-05-16T16:30:55.220Z,13.30
2018-05-16T16:33:23.601Z,13.10
2018-05-16T16:35:51.902Z,12.00
2018-05-16T16:38:21.100Z,12.50
2018-05-16T16:40:49.488Z,11.73
2018-05-16T16:43:17.036Z,11.20
2018-05-16T16:45:44.592Z,11.07
2018-05-16T16:48:12.167Z,11.93
2018-05-16T16:50:39.755Z,12.27
2018-05-16T16:53:08.256Z,12.00
2018-05-16T16:55:35.879Z,12.00
2018-05-16T16:58:03.481Z,12.37
2018-05-16T17:00:32.823Z,10.63
2018-05-16T17:03:00.437Z,10.10
2018-05-16T17:05:28.763Z,12.30
2018-05-16T17:07:57.722Z,12.60
2018-05-16T17:10:26.048Z,11.07
2018-05-16T17:12:53.646Z,10.33
2018-05-16T17:15:22.094Z,11.13
2018-05-16T17:17:49.689Z,10.50
2018-05-16T17:20:17.284Z,12.17
2018-05-16T17:22:44.844Z,14.30
2018-05-16T17:25:12.414Z,11.07
2018-05-16T17:27:39.940Z,12.93
2018-05-16T17:30:07.522Z,11.70
2018-05-16T17:32:35.072Z,11.07
2018-05-16T17:35:02.625Z,9.50
2018-05-16T17:37:30.180Z,11.13
2018-05-16T17:39:58.596Z,10.83
2018-05-16T17:42:26.189Z,10.23
2018-05-16T17:44:53.769Z,10.27
2018-05-16T17:47:23.875Z,10.40
2018-05-16T17:49:51.615Z,10.53
2018-05-16T17:52:19.151Z,11.57
2018-05-16T17:54:46.681Z,11.48
2018-05-16T17:57:14.269Z,10.07
2018-05-16T17:59:41.934Z,9.60
2018-05-16T18:02:09.726Z,9.80
2018-05-16T18:04:37.320Z,8.63
2018-05-16T18:07:05.720Z,9.37
2018-05-16T18:09:33.267Z,8.53
2018-05-16T18:12:01.208Z,9.77
2018-05-16T18:17:29.477Z,8.83
2018-05-16T18:19:57.030Z,8.90
2018-05-16T18:22:24.570Z,9.30
2018-05-16T18:24:52.143Z,8.70
2018-05-16T18:27:19.706Z,8.53
2018-05-16T18:29:47.251Z,9.03
2018-05-16T18:32:16.551Z,8.40
2018-05-16T18:34:44.968Z,9.13
2018-05-16T18:37:12.503Z,10.27
2018-05-16T18:39:40.136Z,10.73
2018-05-16T18:42:07.685Z,10.77
2018-05-16T18:44:35.297Z,9.97
2018-05-16T18:47:02.867Z,10.80
2018-05-16T18:49:30.475Z,11.03
2018-05-16T18:51:58.060Z,10.70
2018-05-16T18:54:25.624Z,12.10
2018-05-16T18:56:53.219Z,11.53
2018-05-16T18:59:20.837Z,11.43
2018-05-16T19:01:49.195Z,11.93
2018-05-16T19:04:17.881Z,12.40
2018-05-16T19:06:45.494Z,12.73
2018-05-16T19:09:13.037Z,13.97
2018-05-16T19:11:42.183Z,16.23
2018-05-16T19:14:09.785Z,13.13
2018-05-16T19:16:37.350Z,12.97
2018-05-16T19:19:04.917Z,15.50
2018-05-16T19:21:32.481Z,26.97
2018-05-16T19:24:00.315Z,13.70
2018-05-16T19:26:27.861Z,16.67
2018-05-16T19:28:56.273Z,29.40
2018-05-16T19:31:23.811Z,15.00
2018-05-16T19:33:52.397Z,14.50
2018-05-16T19:36:19.957Z,14.30
2018-05-16T19:38:47.537Z,15.13
2018-05-16T19:41:15.117Z,13.40
2018-05-16T19:43:43.450Z,13.13
2018-05-16T19:46:12.447Z,13.40
2018-05-16T19:48:40.122Z,13.93
2018-05-16T19:51:07.809Z,14.83
2018-05-16T19:53:39.145Z,13.87
2018-05-16T19:56:06.806Z,20.63
2018-05-16T19:58:34.471Z,15.47
2018-05-16T20:01:01.986Z,13.20
2018-05-16T20:03:29.543Z,14.07
2018-05-16T20:05:57.110Z,14.00
2018-05-16T20:08:24.684Z,13.83
2018-05-16T20:10:52.288Z,13.90
2018-05-16T20:13:20.612Z,15.57
2018-05-16T20:15:48.361Z,15.90
2018-05-16T20:18:15.940Z,14.80
2018-05-16T20:20:43.780Z,16.00
2018-05-16T20:23:11.315Z,18.30
2018-05-16T20:25:39.617Z,16.03
2018-05-16T20:28:07.172Z,16.07
2018-05-16T20:30:34.733Z,17.17
2018-05-16T20:33:02.282Z,17.03
2018-05-16T20:35:29.884Z,17.93
2018-05-16T20:37:57.445Z,18.67
2018-05-16T20:40:25.602Z,18.47
2018-05-16T20:42:53.132Z,18.47
2018-05-16T20:45:20.729Z,19.97
2018-05-16T20:47:48.297Z,20.10
2018-05-16T20:50:15.856Z,21.13
2018-05-16T20:52:44.574Z,22.27
2018-05-16T20:55:12.881Z,23.40
2018-05-16T20:57:40.406Z,24.33
2018-05-16T21:00:07.943Z,25.17
2018-05-16T21:02:35.531Z,24.67
2018-05-16T21:05:03.877Z,24.37
2018-05-16T21:07:32.208Z,25.03
2018-05-16T21:09:59.741Z,26.20
2018-05-16T21:12:28.065Z,25.57
2018-05-16T21:14:55.602Z,25.77
2018-05-16T21:17:23.156Z,25.13
2018-05-16T21:19:50.728Z,25.17
2018-05-16T21:22:18.246Z,24.70
2018-05-16T21:24:49.066Z,25.07
2018-05-16T21:27:23.349Z,25.13
2018-05-16T21:29:54.004Z,26.70
2018-05-16T21:32:22.393Z,30.27
2018-05-16T21:34:49.975Z,31.73
2018-05-16T21:37:18.303Z,28.43
2018-05-16T21:39:45.828Z,29.10
2018-05-16T21:42:14.145Z,29.10
2018-05-16T21:44:41.680Z,28.27
2018-05-16T21:47:09.228Z,29.63
2018-05-16T21:49:36.766Z,29.63
2018-05-16T21:52:05.068Z,30.13
2018-05-16T21:54:32.633Z,26.50
2018-05-16T21:57:00.188Z,27.23
2018-05-16T21:59:27.722Z,26.83
2018-05-16T22:01:56.009Z,26.47
2018-05-16T22:04:23.576Z,26.73
2018-05-16T22:06:51.148Z,28.17
2018-05-16T22:09:18.690Z,28.43
2018-05-16T22:11:46.216Z,27.40
2018-05-16T22:14:13.777Z,26.13
2018-05-16T22:16:41.306Z,29.00
2018-05-16T22:19:08.866Z,29.87
2018-05-16T22:21:36.397Z,30.13
2018-05-16T22:24:03.954Z,29.57
2018-05-16T22:26:31.487Z,28.00
2018-05-16T22:28:59.783Z,27.97
2018-05-16T22:31:32.939Z,27.77
2018-05-16T22:34:06.041Z,27.43
2018-05-16T22:36:39.932Z,25.33
2018-05-16T22:39:13.189Z,24.03
2018-05-16T22:41:46.801Z,22.93
2018-05-16T22:47:12.147Z,24.67
2018-05-16T22:49:39.672Z,23.90
2018-05-16T22:52:07.724Z,23.53
2018-05-16T22:54:35.300Z,24.63
2018-05-16T22:57:04.270Z,23.17
2018-05-16T22:59:31.798Z,24.00
2018-05-16T23:02:00.099Z,25.33
2018-05-16T23:04:27.653Z,24.93
2018-05-16T23:06:55.950Z,25.97
2018-05-16T23:09:23.470Z,25.97
2018-05-16T23:11:51.797Z,24.60
2018-05-16T23:14:20.108Z,25.17
2018-05-16T23:16:47.620Z,24.83
2018-05-16T23:19:15.162Z,23.87
2018-05-16T23:21:42.674Z,26.20
2018-05-16T23:24:10.220Z,25.90
2018-05-16T23:26:37.759Z,25.87
2018-05-16T23:29:05.274Z,25.13
2018-05-16T23:31:33.126Z,24.03
2018-05-16T23:34:00.658Z,24.60
2018-05-16T23:36:28.207Z,24.60
2018-05-16T23:38:55.737Z,24.90
2018-05-16T23:41:23.266Z,23.43
2018-05-16T23:43:50.770Z,23.67
2018-05-16T23:46:18.359Z,22.23
2018-05-16T23:48:45.870Z,23.83
2018-05-16T23:51:14.158Z,23.90
2018-05-16T23:53:41.678Z,24.57
2018-05-16T23:56:09.229Z,22.63
2018-05-16T23:58:36.733Z,22.40
